Flight Number: EUR2338 Duration: 1:45
Departure: Bruxelles National (EBBR) at 18:15 Distance: 521 Nm
Arrival: Bratislava Ivanka (LZIB) at 20:00 Equipment: A321

Weather Information
Bruxelles National, Belgium (EBBR) 50-54N 004-32E 58M Sep 21, 2017 - 05:20 PM EDT / 2017.09.21 2120 UTC
Wind: from the S (180 degrees) at 5 MPH (4 KT):0
Visibility: greater than 7 mile(s):0 Temperature: 53 F (12 C) Dew Point: 48 F (9 C) Relative Humidity: 81% Pressure (altimeter): 30.09 in. Hg (1019 hPa)
ob: EBBR 212120Z 18004KT CAVOK 12/09 Q1019 NOSIG cycle: 21
Sunrise: 05:31 Sunset: 17:38 (UTC)

Bratislava Ivanka, Slovakia (LZIB) 48-12N 017-12E 142M Sep 21, 2017 - 05:00 PM EDT / 2017.09.21 2100 UTC
Wind: from the WNW (290 degrees) at 9 MPH (8 KT):0
Visibility: greater than 7 mile(s):0
Sky conditions: mostly cloudy Weather: light rain Temperature: 55 F (13 C) Dew Point: 50 F (10 C) Relative Humidity: 81% Pressure (altimeter): 30.03 in. Hg (1017 hPa)
ob: LZIB 212100Z 29008KT 9999 -RA FEW030 SCT040 BKN055 13/10 Q1017 cycle: 21
Sunrise: 04:40 Sunset: 16:47 (UTC)

TAF:2017/09/21 18:41 TAF LZIB 211700Z 2118/2218 33011KT 9999 -RA FEW020 SCT040 OVC090 PROB40 TEMPO 2118/2122 6000 RA SCT015 OVC040 BECMG 2206/2208 BKN025 BECMG 2215/2217 30006KT SCT030

Previous Pireps for this route
Date Aircraft Flight time Fuel used Landing rate On time
2015-01-09B73702.0210122-208Charter
2015-03-29A32101.3293240Yes
2015-06-07B7770.4027569-463Charter
2015-11-26B77702.1128227-371Charter
(pireps marked green are flown by you)

Route map